createdAt,value
2023-02-04T00:00:26.418Z,-23394.66
2023-02-04T00:02:29.228Z,-23400.22
2023-02-04T00:04:31.972Z,-23396.72
2023-02-04T00:06:34.670Z,-23394.81
2023-02-04T00:08:37.622Z,-23396.41
2023-02-04T00:10:40.230Z,-23397.69
2023-02-04T00:12:42.891Z,-23393.56
2023-02-04T00:14:45.784Z,-23391.00
2023-02-04T00:16:49.742Z,-23392.59
2023-02-04T00:18:52.467Z,-23393.88
2023-02-04T00:20:55.091Z,-23398.16
2023-02-04T00:22:58.086Z,-23395.16
2023-02-04T00:25:00.788Z,-23393.88
2023-02-04T00:27:03.855Z,-23392.75
2023-02-04T00:29:06.483Z,-23391.66
2023-02-04T00:31:09.207Z,-23393.56
2023-02-04T00:33:13.210Z,-23392.59
2023-02-04T00:35:15.827Z,-23390.38
2023-02-04T00:37:18.455Z,-23392.28
2023-02-04T00:39:21.085Z,-23393.22
2023-02-04T00:41:23.739Z,-23395.31
2023-02-04T00:43:26.446Z,-23395.78
2023-02-04T00:45:29.237Z,-23398.66
2023-02-04T00:47:31.913Z,-23395.47
2023-02-04T00:49:36.135Z,-23398.00
2023-02-04T00:51:40.102Z,-23395.63
2023-02-04T00:53:42.737Z,-23394.81
2023-02-04T00:55:46.410Z,-23396.25
2023-02-04T00:57:49.069Z,-23395.94
2023-02-04T00:59:51.668Z,-23394.19
2023-02-04T01:01:54.316Z,-23393.22
2023-02-04T01:03:56.995Z,-23400.53
2023-02-04T01:06:00.997Z,-23396.09
2023-02-04T01:08:03.615Z,-23397.84
2023-02-04T01:10:07.025Z,-23391.97
2023-02-04T01:12:09.706Z,-23389.44
2023-02-04T01:14:13.376Z,-23392.13
2023-02-04T01:16:16.174Z,-23391.34
2023-02-04T01:18:18.802Z,-23383.69
2023-02-04T01:20:21.677Z,-23385.28
2023-02-04T01:22:25.658Z,-23384.81
2023-02-04T01:24:28.367Z,-23384.66
2023-02-04T01:26:31.218Z,-23384.66
2023-02-04T01:28:33.916Z,-23381.16
2023-02-04T01:30:36.666Z,-23383.69
2023-02-04T01:32:39.384Z,-23382.75
2023-02-04T01:34:42.041Z,-23383.38
2023-02-04T01:36:44.681Z,-23381.16
2023-02-04T01:38:48.823Z,-23385.59
2023-02-04T01:40:51.461Z,-23385.44
2023-02-04T01:42:54.733Z,-23388.78
2023-02-04T01:44:57.455Z,-23383.38
2023-02-04T01:47:00.388Z,-23384.34
2023-02-04T01:49:03.068Z,-23381.97
2023-02-04T01:51:08.481Z,-23382.75
2023-02-04T01:53:11.200Z,-23377.97
2023-02-04T01:55:18.335Z,-23372.72
2023-02-04T01:57:21.203Z,-23377.34
2023-02-04T01:59:24.234Z,-23373.22
2023-02-04T02:01:41.732Z,-23377.34
2023-02-04T02:03:44.458Z,-23376.22
2023-02-04T02:05:49.785Z,-23373.22
2023-02-04T02:07:55.080Z,-23375.28
2023-02-04T02:09:57.767Z,-23374.81
2023-02-04T02:12:04.035Z,-23372.09
2023-02-04T02:14:06.864Z,-23374.16
2023-02-04T02:16:09.605Z,-23371.63
2023-02-04T02:18:13.083Z,-23374.81
2023-02-04T02:20:18.186Z,-23370.34
2023-02-04T02:22:26.907Z,-23371.31
2023-02-04T02:24:32.936Z,-23373.84
2023-02-04T02:26:35.647Z,-23366.53
2023-02-04T02:28:38.410Z,-23369.06
2023-02-04T02:30:41.953Z,-23370.34
2023-02-04T02:32:46.203Z,-23364.00
2023-02-04T02:34:48.893Z,-23363.66
2023-02-04T02:36:51.544Z,-23364.00
2023-02-04T02:38:55.450Z,-23357.94
2023-02-04T02:41:00.361Z,-23366.22
2023-02-04T02:43:03.120Z,-23361.75
2023-02-04T02:45:12.126Z,-23361.44
2023-02-04T02:47:16.721Z,-23361.13
2023-02-04T02:49:20.794Z,-23359.69
2023-02-04T02:51:23.501Z,-23357.63
2023-02-04T02:53:26.181Z,-23353.19
2023-02-04T02:55:29.646Z,-23359.84
2023-02-04T02:57:33.616Z,-23356.66
2023-02-04T02:59:36.253Z,-23357.63
2023-02-04T03:01:38.987Z,-23357.16
2023-02-04T03:03:45.462Z,-23355.09
2023-02-04T03:05:50.850Z,-23357.63
2023-02-04T03:07:53.699Z,-23349.34
2023-02-04T03:09:56.406Z,-23350.47
2023-02-04T03:11:59.074Z,-23355.88
2023-02-04T03:14:04.727Z,-23351.72
2023-02-04T03:16:09.044Z,-23350.31
2023-02-04T03:18:12.745Z,-23351.41
2023-02-04T03:20:16.444Z,-23350.00
2023-02-04T03:22:19.188Z,-23350.63
2023-02-04T03:24:21.947Z,-23355.56
2023-02-04T03:26:25.856Z,-23355.25
2023-02-04T03:28:28.619Z,-23351.59
2023-02-04T03:30:33.400Z,-23353.34
2023-02-04T03:32:36.352Z,-23357.16
2023-02-04T03:34:39.267Z,-23356.34
2023-02-04T03:36:42.038Z,-23359.38
2023-02-04T03:38:44.691Z,-23357.16
2023-02-04T03:40:47.437Z,-23357.63
2023-02-04T03:42:50.058Z,-23357.00
2023-02-04T03:44:52.738Z,-23353.19
2023-02-04T03:46:57.027Z,-23354.75
2023-02-04T03:48:59.708Z,-23352.53
2023-02-04T03:51:02.350Z,-23351.59
2023-02-04T03:53:05.057Z,-23348.41
2023-02-04T03:55:08.184Z,-23350.94
2023-02-04T03:57:11.028Z,-23353.81
2023-02-04T03:59:13.673Z,-23353.50
2023-02-04T04:01:16.395Z,-23354.94
2023-02-04T04:03:20.404Z,-23356.34
2023-02-04T04:05:23.016Z,-23353.81
2023-02-04T04:07:25.634Z,-23349.34
2023-02-04T04:09:28.241Z,-23349.81
2023-02-04T04:11:30.892Z,-23350.31
2023-02-04T04:13:33.505Z,-23350.00
2023-02-04T04:15:36.257Z,-23346.81
2023-02-04T04:17:38.904Z,-23347.44
2023-02-04T04:19:44.301Z,-23347.44
2023-02-04T04:21:46.881Z,-23352.38
2023-02-04T04:23:49.590Z,-23351.59
2023-02-04T04:25:52.312Z,-23357.00
2023-02-04T04:27:54.976Z,-23350.94
2023-02-04T04:29:57.671Z,-23353.19
2023-02-04T04:32:00.289Z,-23351.91
2023-02-04T04:34:03.035Z,-23351.91
2023-02-04T04:36:08.528Z,-23355.41
2023-02-04T04:38:11.251Z,-23357.00
2023-02-04T04:40:14.215Z,-23354.75
2023-02-04T04:42:16.852Z,-23356.50
2023-02-04T04:44:19.460Z,-23353.81
2023-02-04T04:46:22.159Z,-23356.19
2023-02-04T04:48:25.489Z,-23355.88
2023-02-04T04:50:28.223Z,-23349.03
2023-02-04T04:52:32.198Z,-23351.91
2023-02-04T04:54:34.811Z,-23357.00
2023-02-04T04:56:37.462Z,-23350.47
2023-02-04T04:58:40.089Z,-23349.34
2023-02-04T05:00:42.842Z,-23352.53
2023-02-04T05:02:45.640Z,-23347.91
2023-02-04T05:04:48.301Z,-23350.16
2023-02-04T05:06:50.992Z,-23354.75
2023-02-04T05:08:55.449Z,-23350.00
2023-02-04T05:10:58.146Z,-23350.00
2023-02-04T05:13:00.759Z,-23345.06
2023-02-04T05:15:03.489Z,-23349.03
2023-02-04T05:17:06.146Z,-23354.75
2023-02-04T05:19:08.733Z,-23354.13
2023-02-04T05:21:11.678Z,-23354.59
2023-02-04T05:23:14.371Z,-23348.41
2023-02-04T05:25:18.493Z,-23353.81
2023-02-04T05:27:21.222Z,-23351.41
2023-02-04T05:29:23.900Z,-23351.25
2023-02-04T05:31:26.576Z,-23348.72
2023-02-04T05:33:29.265Z,-23342.66
2023-02-04T05:35:32.017Z,-23349.66
2023-02-04T05:37:34.917Z,-23342.50
2023-02-04T05:39:37.580Z,-23348.72
2023-02-04T05:41:41.537Z,-23345.84
2023-02-04T05:43:44.142Z,-23343.63
2023-02-04T05:45:46.788Z,-23344.25
2023-02-04T05:47:49.442Z,-23343.78
2023-02-04T05:49:52.022Z,-23346.16
2023-02-04T05:51:54.712Z,-23349.03
2023-02-04T05:53:57.394Z,-23346.50
2023-02-04T05:56:00.013Z,-23350.94
2023-02-04T05:58:03.950Z,-23347.59
2023-02-04T06:00:07.886Z,-23347.13
2023-02-04T06:02:10.554Z,-23342.19
2023-02-04T06:04:15.369Z,-23342.03
2023-02-04T06:06:18.118Z,-23338.06
2023-02-04T06:08:20.792Z,-23340.13
2023-02-04T06:10:23.488Z,-23338.06
2023-02-04T06:12:26.063Z,-23339.81
2023-02-04T06:14:29.990Z,-23339.50
2023-02-04T06:16:32.574Z,-23343.94
2023-02-04T06:18:35.238Z,-23345.84
2023-02-04T06:20:37.976Z,-23339.50
2023-02-04T06:22:40.622Z,-23337.91
2023-02-04T06:24:43.286Z,-23340.91
2023-02-04T06:26:45.972Z,-23338.53
2023-02-04T06:28:48.590Z,-23341.41
2023-02-04T06:30:52.699Z,-23339.16
2023-02-04T06:32:55.419Z,-23336.63
2023-02-04T06:34:57.982Z,-23335.97
2023-02-04T06:37:00.572Z,-23337.25
2023-02-04T06:39:03.188Z,-23336.94
2023-02-04T06:41:06.306Z,-23338.06
2023-02-04T06:43:09.034Z,-23337.56
2023-02-04T06:45:11.698Z,-23339.81
2023-02-04T06:47:15.832Z,-23339.16
2023-02-04T06:49:18.509Z,-23339.97
2023-02-04T06:51:21.204Z,-23341.41
2023-02-04T06:53:23.943Z,-23344.41
2023-02-04T06:55:26.657Z,-23339.16
2023-02-04T06:57:29.226Z,-23337.91
2023-02-04T06:59:33.035Z,-23339.50
2023-02-04T07:01:35.709Z,-23337.25
2023-02-04T07:03:39.781Z,-23342.03
2023-02-04T07:05:42.439Z,-23336.47
2023-02-04T07:07:45.135Z,-23333.91
2023-02-04T07:09:47.732Z,-23334.88
2023-02-04T07:11:50.362Z,-23338.84
2023-02-04T07:13:53.006Z,-23343.31
2023-02-04T07:15:55.681Z,-23336.94
2023-02-04T07:17:58.388Z,-23335.81
2023-02-04T07:20:02.662Z,-23336.63
2023-02-04T07:22:05.715Z,-23339.66
2023-02-04T07:24:08.453Z,-23340.91
2023-02-04T07:26:11.075Z,-23340.75
2023-02-04T07:28:13.700Z,-23339.31
2023-02-04T07:30:16.329Z,-23341.72
2023-02-04T07:32:18.984Z,-23344.91
2023-02-04T07:34:21.738Z,-23335.50
2023-02-04T07:36:26.286Z,-23335.19
2023-02-04T07:38:29.008Z,-23344.59
2023-02-04T07:40:32.075Z,-23338.84
2023-02-04T07:42:34.937Z,-23341.72
2023-02-04T07:44:38.444Z,-23335.34
2023-02-04T07:46:41.218Z,-23335.34
2023-02-04T07:48:43.925Z,-23336.47
2023-02-04T07:50:46.627Z,-23339.16
2023-02-04T07:52:50.673Z,-23339.16
2023-02-04T07:54:53.464Z,-23341.06
2023-02-04T07:56:56.113Z,-23339.50
2023-02-04T07:58:58.795Z,-23339.81
2023-02-04T08:01:01.980Z,-23339.31
2023-02-04T08:03:05.166Z,-23338.53
2023-02-04T08:05:08.700Z,-23335.66
2023-02-04T08:07:11.274Z,-23339.16
2023-02-04T08:09:15.361Z,-23335.97
2023-02-04T08:11:18.023Z,-23332.47
2023-02-04T08:13:20.738Z,-23337.91
2023-02-04T08:15:23.352Z,-23340.91
2023-02-04T08:17:26.121Z,-23338.22
2023-02-04T08:19:28.784Z,-23341.56
2023-02-04T08:21:31.465Z,-23342.03
2023-02-04T08:23:34.207Z,-23337.56
2023-02-04T08:25:38.169Z,-23340.28
2023-02-04T08:27:41.281Z,-23346.50
2023-02-04T08:29:43.886Z,-23340.75
2023-02-04T08:31:47.666Z,-23345.22
2023-02-04T08:33:50.334Z,-23346.50
2023-02-04T08:35:52.960Z,-23344.59
2023-02-04T08:37:55.635Z,-23345.53
2023-02-04T08:39:58.498Z,-23347.91
2023-02-04T08:42:02.534Z,-23348.41
2023-02-04T08:44:05.372Z,-23354.94
2023-02-04T08:46:08.177Z,-23354.75
2023-02-04T08:48:10.831Z,-23346.66
2023-02-04T08:50:13.605Z,-23346.66
2023-02-04T08:52:16.288Z,-23352.22
2023-02-04T08:54:19.022Z,-23354.44
2023-02-04T08:56:21.666Z,-23354.13
2023-02-04T08:58:25.695Z,-23349.03
2023-02-04T09:00:28.605Z,-23350.31
2023-02-04T09:02:31.318Z,-23353.97
2023-02-04T09:04:34.546Z,-23374.81
2023-02-04T09:06:37.120Z,-23391.16
2023-02-04T09:08:39.782Z,-23393.72
2023-02-04T09:10:42.427Z,-23397.38
2023-02-04T09:12:45.092Z,-23410.41
2023-02-04T09:14:49.266Z,-23399.91
2023-02-04T09:16:51.909Z,-23393.09
2023-02-04T09:18:54.629Z,-23395.31
2023-02-04T09:20:57.244Z,-23384.97
2023-02-04T09:22:59.867Z,-23392.59
2023-02-04T09:25:02.531Z,-23433.28
2023-02-04T09:27:05.335Z,-23418.03
2023-02-04T09:29:07.940Z,-23433.09
2023-02-04T09:31:12.045Z,-23444.38
2023-02-04T09:33:16.536Z,-23422.47
2023-02-04T09:35:19.170Z,-23467.22
2023-02-04T09:37:21.800Z,-23435.66
2023-02-04T09:39:24.414Z,-23451.34
2023-02-04T09:41:27.183Z,-23477.69
2023-02-04T09:43:34.602Z,-23480.53
2023-02-04T09:45:37.798Z,-23510.31
2023-02-04T09:47:41.830Z,-23475.63
2023-02-04T09:49:46.819Z,-23472.91
2023-02-04T09:51:50.785Z,-23419.28
2023-02-04T09:53:55.852Z,-23482.13
2023-02-04T09:55:58.496Z,-23420.88
2023-02-04T09:58:01.490Z,-23410.06
2023-02-04T10:00:09.114Z,-23455.47
2023-02-04T10:02:23.989Z,-23456.28
2023-02-04T10:04:28.672Z,-23428.03
2023-02-04T10:06:31.766Z,-23449.44
2023-02-04T10:08:35.097Z,-23431.03
2023-02-04T10:10:37.680Z,-23419.28
2023-02-04T10:12:40.478Z,-23453.56
2023-02-04T10:14:43.656Z,-23432.47
2023-02-04T10:16:53.393Z,-23436.13
2023-02-04T10:18:56.444Z,-23454.69
2023-02-04T10:21:13.566Z,-23426.59
2023-02-04T10:23:16.237Z,-23423.72
2023-02-04T10:25:21.514Z,-23416.44
2023-02-04T10:27:24.438Z,-23403.72
2023-02-04T10:29:27.202Z,-23406.28
2023-02-04T10:31:37.570Z,-23380.38
2023-02-04T10:33:40.434Z,-23403.88
2023-02-04T10:35:47.845Z,-23397.69
2023-02-04T10:38:04.950Z,-23401.34
2023-02-04T10:40:27.993Z,-23396.72
2023-02-04T10:42:32.045Z,-23390.06
2023-02-04T10:44:36.595Z,-23385.59
2023-02-04T10:46:39.528Z,-23395.00
2023-02-04T10:48:43.100Z,-23407.69
2023-02-04T10:50:47.705Z,-23404.34
2023-02-04T10:52:55.353Z,-23392.91
2023-02-04T10:54:57.057Z,-23386.25
2023-02-04T10:57:01.667Z,-23387.53
2023-02-04T10:59:04.344Z,-23376.56
2023-02-04T11:01:10.719Z,-23386.88
2023-02-04T11:03:17.410Z,-23392.13
2023-02-04T11:05:22.506Z,-23398.00
2023-02-04T11:07:26.579Z,-23391.97
2023-02-04T11:09:30.703Z,-23393.88
2023-02-04T11:11:33.338Z,-23382.59
2023-02-04T11:13:43.943Z,-23385.28
2023-02-04T11:15:50.554Z,-23372.25
2023-02-04T11:18:03.825Z,-23374.16
2023-02-04T11:20:17.556Z,-23370.34
2023-02-04T11:22:23.848Z,-23379.88
2023-02-04T11:24:27.054Z,-23371.00
2023-02-04T11:26:36.292Z,-23385.78
2023-02-04T11:28:50.204Z,-23399.44
2023-02-04T11:31:00.874Z,-23407.38
2023-02-04T11:33:06.141Z,-23409.44
2023-02-04T11:35:27.494Z,-23415.00
2023-02-04T11:37:37.154Z,-23409.44
2023-02-04T11:39:42.359Z,-23394.19
2023-02-04T11:41:47.550Z,-23411.97
2023-02-04T11:43:51.844Z,-23398.66
2023-02-04T11:46:04.093Z,-23390.69
2023-02-04T11:48:14.776Z,-23391.97
2023-02-04T11:50:22.083Z,-23402.28
2023-02-04T11:52:24.655Z,-23403.09
2023-02-04T11:54:27.315Z,-23403.72
2023-02-04T11:56:30.969Z,-23377.34
2023-02-04T11:58:34.972Z,-23374.31
2023-02-04T12:00:38.646Z,-23369.25
2023-02-04T12:02:47.222Z,-23377.81
2023-02-04T12:04:58.451Z,-23376.88
2023-02-04T12:07:04.405Z,-23375.28
2023-02-04T12:09:08.946Z,-23385.13
2023-02-04T12:11:15.585Z,-23395.94
2023-02-04T12:13:23.401Z,-23391.50
2023-02-04T12:15:35.769Z,-23396.25
2023-02-04T12:17:38.857Z,-23404.34
2023-02-04T12:19:41.484Z,-23385.78
2023-02-04T12:21:44.325Z,-23385.94
2023-02-04T12:23:46.968Z,-23374.00
2023-02-04T12:25:50.120Z,-23387.19
2023-02-04T12:27:54.577Z,-23393.09
2023-02-04T12:29:57.242Z,-23378.63
2023-02-04T12:32:01.430Z,-23379.56
2023-02-04T12:34:04.111Z,-23385.44
2023-02-04T12:36:07.601Z,-23399.13
2023-02-04T12:38:10.514Z,-23395.47
2023-02-04T12:40:16.799Z,-23402.44
2023-02-04T12:42:19.408Z,-23395.78
2023-02-04T12:44:22.311Z,-23393.56
2023-02-04T12:46:25.053Z,-23390.06
2023-02-04T12:48:29.232Z,-23399.59
2023-02-04T12:50:31.917Z,-23397.38
2023-02-04T12:52:34.807Z,-23389.44
2023-02-04T12:54:37.508Z,-23409.44
2023-02-04T12:56:40.210Z,-23409.13
2023-02-04T12:58:42.869Z,-23412.63
2023-02-04T13:00:45.551Z,-23392.13
2023-02-04T13:02:48.362Z,-23389.75
2023-02-04T13:04:52.478Z,-23391.50
2023-02-04T13:06:55.255Z,-23374.63
2023-02-04T13:08:57.946Z,-23392.59
2023-02-04T13:11:00.597Z,-23393.56
2023-02-04T13:13:04.675Z,-23405.47
2023-02-04T13:15:08.506Z,-23443.41
2023-02-04T13:17:11.450Z,-23419.44
2023-02-04T13:19:14.079Z,-23404.03
2023-02-04T13:21:18.531Z,-23411.34
2023-02-04T13:23:21.165Z,-23420.88
2023-02-04T13:25:23.814Z,-23410.41
2023-02-04T13:27:27.660Z,-23388.31
2023-02-04T13:29:30.336Z,-23380.38
2023-02-04T13:31:33.148Z,-23390.06
2023-02-04T13:33:35.968Z,-23381.47
2023-02-04T13:35:38.634Z,-23390.38
2023-02-04T13:37:42.722Z,-23386.56
2023-02-04T13:39:45.355Z,-23372.72
2023-02-04T13:41:48.032Z,-23371.31
2023-02-04T13:43:50.948Z,-23374.50
2023-02-04T13:45:53.611Z,-23368.75
2023-02-04T13:47:56.291Z,-23375.44
2023-02-04T13:49:58.962Z,-23378.47
2023-02-04T13:52:01.643Z,-23374.50
2023-02-04T13:54:05.796Z,-23378.94
2023-02-04T13:56:08.796Z,-23379.56
2023-02-04T13:58:11.576Z,-23371.31
2023-02-04T14:00:15.557Z,-23371.00
2023-02-04T14:02:18.598Z,-23367.00
2023-02-04T14:04:21.300Z,-23372.25
2023-02-04T14:06:25.217Z,-23372.72
2023-02-04T14:08:28.364Z,-23374.50
2023-02-04T14:10:32.865Z,-23378.31
2023-02-04T14:12:35.790Z,-23377.50
2023-02-04T14:14:38.436Z,-23375.75
2023-02-04T14:16:41.214Z,-23381.31
2023-02-04T14:18:43.900Z,-23380.69
2023-02-04T14:20:46.608Z,-23385.94
2023-02-04T14:22:49.351Z,-23378.31
2023-02-04T14:24:51.973Z,-23383.06
2023-02-04T14:26:56.305Z,-23380.22
2023-02-04T14:28:58.987Z,-23388.78
2023-02-04T14:31:01.725Z,-23375.28
2023-02-04T14:33:04.811Z,-23384.97
2023-02-04T14:35:07.898Z,-23382.59
2023-02-04T14:37:10.576Z,-23384.81
2023-02-04T14:39:13.226Z,-23384.50
2023-02-04T14:41:19.936Z,-23374.50
2023-02-04T14:43:23.996Z,-23372.56
2023-02-04T14:45:26.656Z,-23378.63
2023-02-04T14:47:29.234Z,-23377.50
2023-02-04T14:49:33.024Z,-23377.97
2023-02-04T14:51:35.723Z,-23381.31
2023-02-04T14:53:39.202Z,-23378.63
2023-02-04T14:55:42.536Z,-23373.53
2023-02-04T14:57:45.152Z,-23378.63
2023-02-04T14:59:49.103Z,-23364.63
2023-02-04T15:01:52.301Z,-23365.25
2023-02-04T15:03:55.054Z,-23369.41
2023-02-04T15:05:57.723Z,-23371.47
2023-02-04T15:08:00.357Z,-23373.06
2023-02-04T15:10:03.149Z,-23373.06
2023-02-04T15:12:06.523Z,-23381.16
2023-02-04T15:14:09.150Z,-23377.50
2023-02-04T15:16:14.751Z,-23366.06
2023-02-04T15:18:17.838Z,-23368.75
2023-02-04T15:20:20.591Z,-23373.53
2023-02-04T15:22:23.398Z,-23370.03
2023-02-04T15:24:27.694Z,-23375.13
2023-02-04T15:26:30.277Z,-23364.16
2023-02-04T15:28:32.902Z,-23362.72
2023-02-04T15:30:36.154Z,-23364.31
2023-02-04T15:32:42.794Z,-23369.72
2023-02-04T15:34:45.493Z,-23368.44
2023-02-04T15:36:48.231Z,-23366.84
2023-02-04T15:38:50.832Z,-23360.97
2023-02-04T15:40:53.572Z,-23359.53
2023-02-04T15:42:56.263Z,-23363.19
2023-02-04T15:44:58.910Z,-23364.94
2023-02-04T15:47:01.590Z,-23360.34
2023-02-04T15:49:05.649Z,-23362.06
2023-02-04T15:51:08.274Z,-23364.63
2023-02-04T15:53:10.912Z,-23361.13
2023-02-04T15:55:13.604Z,-23370.03
2023-02-04T15:57:16.221Z,-23365.44
2023-02-04T15:59:18.859Z,-23368.28
2023-02-04T16:01:21.634Z,-23369.41
2023-02-04T16:03:24.415Z,-23363.34
2023-02-04T16:05:28.501Z,-23366.69
2023-02-04T16:07:31.150Z,-23367.81
2023-02-04T16:09:33.723Z,-23363.34
2023-02-04T16:11:38.431Z,-23365.44
2023-02-04T16:13:41.118Z,-23369.41
2023-02-04T16:15:43.796Z,-23358.59
2023-02-04T16:17:46.496Z,-23357.94
2023-02-04T16:19:49.220Z,-23361.75
2023-02-04T16:21:53.579Z,-23356.03
2023-02-04T16:23:56.185Z,-23354.59
2023-02-04T16:25:58.902Z,-23357.63
2023-02-04T16:28:01.541Z,-23357.63
2023-02-04T16:30:05.000Z,-23364.63
2023-02-04T16:32:07.688Z,-23359.53
2023-02-04T16:34:10.377Z,-23355.41
2023-02-04T16:36:13.723Z,-23350.16
2023-02-04T16:38:19.242Z,-23353.81
2023-02-04T16:40:22.076Z,-23354.59
2023-02-04T16:42:24.708Z,-23355.09
2023-02-04T16:44:27.315Z,-23357.63
2023-02-04T16:46:31.804Z,-23351.09
2023-02-04T16:48:36.106Z,-23346.50
2023-02-04T16:50:38.985Z,-23346.31
2023-02-04T16:52:41.674Z,-23345.06
2023-02-04T16:54:45.729Z,-23345.22
2023-02-04T16:56:48.453Z,-23345.06
2023-02-04T16:58:51.060Z,-23340.44
2023-02-04T17:00:54.153Z,-23342.03
2023-02-04T17:02:57.006Z,-23339.50
2023-02-04T17:04:59.728Z,-23337.25
2023-02-04T17:07:02.330Z,-23334.41
2023-02-04T17:09:05.145Z,-23335.66
2023-02-04T17:11:26.541Z,-23333.75
2023-02-04T17:13:29.492Z,-23333.28
2023-02-04T17:15:32.532Z,-23332.00
2023-02-04T17:17:35.333Z,-23331.22
2023-02-04T17:19:38.016Z,-23329.78
2023-02-04T17:21:40.977Z,-23328.19
2023-02-04T17:23:44.653Z,-23330.56
2023-02-04T17:25:47.313Z,-23331.69
2023-02-04T17:27:51.895Z,-23331.38
2023-02-04T17:29:54.503Z,-23328.34
2023-02-04T17:31:57.263Z,-23326.75
2023-02-04T17:33:59.930Z,-23328.19
2023-02-04T17:36:03.421Z,-23328.66
2023-02-04T17:38:06.094Z,-23331.69
2023-02-04T17:40:12.729Z,-23324.53
2023-02-04T17:42:15.456Z,-23322.31
2023-02-04T17:44:23.748Z,-23322.94
2023-02-04T17:46:27.574Z,-23323.41
2023-02-04T17:48:30.719Z,-23323.41
2023-02-04T17:52:44.062Z,-23320.72
2023-02-04T17:54:46.768Z,-23320.38
2023-02-04T17:56:49.466Z,-23320.38
2023-02-04T17:58:52.143Z,-23321.50
2023-02-04T18:00:57.691Z,-23319.28
2023-02-04T18:03:00.861Z,-23318.97
2023-02-04T18:05:13.392Z,-23316.25
2023-02-04T18:07:16.080Z,-23315.94
2023-02-04T18:09:19.426Z,-23317.03
2023-02-04T18:11:27.019Z,-23314.03
2023-02-04T18:13:32.902Z,-23314.03
2023-02-04T18:15:37.165Z,-23313.22
2023-02-04T18:17:41.384Z,-23312.09
2023-02-04T18:19:45.122Z,-23309.72
2023-02-04T18:21:48.314Z,-23308.59
2023-02-04T18:24:10.715Z,-23308.28
2023-02-04T18:26:17.986Z,-23305.09
2023-02-04T18:28:22.574Z,-23302.72
2023-02-04T18:30:27.781Z,-23302.56
2023-02-04T18:32:37.448Z,-23300.97
2023-02-04T18:34:44.648Z,-23306.69
2023-02-04T18:36:47.424Z,-23300.81
2023-02-04T18:38:50.662Z,-23297.13
2023-02-04T18:40:59.314Z,-23292.69
2023-02-04T18:43:14.182Z,-23294.59
2023-02-04T18:45:25.667Z,-23295.22
2023-02-04T18:47:32.403Z,-23295.88
2023-02-04T18:49:39.625Z,-23296.19
2023-02-04T18:51:45.987Z,-23296.03
2023-02-04T18:53:48.848Z,-23295.69
2023-02-04T18:55:53.362Z,-23293.31
2023-02-04T18:57:56.405Z,-23290.75
2023-02-04T19:00:32.193Z,-23289.81
2023-02-04T19:02:39.315Z,-23288.69
2023-02-04T19:04:41.960Z,-23292.19
2023-02-04T19:06:48.346Z,-23290.13
2023-02-04T19:08:51.221Z,-23289.31
2023-02-04T19:10:55.736Z,-23289.81
2023-02-04T19:13:12.502Z,-23288.53
2023-02-04T19:15:35.129Z,-23284.38
2023-02-04T19:17:37.963Z,-23282.63
2023-02-04T19:19:44.076Z,-23279.94
2023-02-04T19:21:48.880Z,-23279.28
2023-02-04T19:23:55.651Z,-23281.69
2023-02-04T19:25:58.262Z,-23279.59
2023-02-04T19:28:02.438Z,-23277.38
2023-02-04T19:30:41.209Z,-23274.81
2023-02-04T19:32:46.328Z,-23278.19
2023-02-04T19:34:49.166Z,-23275.31
2023-02-04T19:36:54.766Z,-23273.88
2023-02-04T19:39:00.296Z,-23272.75
2023-02-04T19:41:03.014Z,-23275.78
2023-02-04T19:43:20.554Z,-23272.91
2023-02-04T19:45:25.260Z,-23273.72
2023-02-04T19:47:30.310Z,-23272.91
2023-02-04T19:49:37.846Z,-23274.19
2023-02-04T19:51:40.674Z,-23273.88
2023-02-04T19:53:46.991Z,-23276.25
2023-02-04T19:55:52.636Z,-23274.66
2023-02-04T19:57:58.374Z,-23275.78
2023-02-04T20:00:01.240Z,-23266.53
2023-02-04T20:02:21.839Z,-23271.00
2023-02-04T20:04:24.509Z,-23272.59
2023-02-04T20:06:33.878Z,-23276.09
2023-02-04T20:08:46.788Z,-23274.81
2023-02-04T20:10:49.212Z,-23275.78
2023-02-04T20:12:53.098Z,-23279.59
2023-02-04T20:14:57.683Z,-23272.91
2023-02-04T20:17:03.449Z,-23270.69
2023-02-04T20:19:15.874Z,-23269.72
2023-02-04T20:21:18.508Z,-23268.13
2023-02-04T20:23:29.408Z,-23272.91
2023-02-04T20:25:39.755Z,-23271.66
2023-02-04T20:27:42.812Z,-23272.91
2023-02-04T20:29:45.846Z,-23267.81
2023-02-04T20:31:48.679Z,-23262.41
2023-02-04T20:33:53.413Z,-23265.25
2023-02-04T20:36:25.836Z,-23261.75
2023-02-04T20:38:28.552Z,-23265.59
2023-02-04T20:40:35.953Z,-23265.44
2023-02-04T20:42:46.122Z,-23259.53
2023-02-04T20:44:48.884Z,-23259.53
2023-02-04T20:46:51.475Z,-23256.19
2023-02-04T20:48:54.040Z,-23255.38
2023-02-04T20:51:01.392Z,-23253.31
2023-02-04T20:53:08.664Z,-23255.38
2023-02-04T20:55:24.524Z,-23256.66
2023-02-04T20:57:27.277Z,-23255.69
2023-02-04T20:59:34.610Z,-23256.00
2023-02-04T21:01:39.093Z,-23258.88
2023-02-04T21:03:41.704Z,-23260.47
2023-02-04T21:05:44.436Z,-23251.56
2023-02-04T21:07:47.058Z,-23244.38
2023-02-04T21:09:51.541Z,-23247.72
2023-02-04T21:11:55.305Z,-23252.50
2023-02-04T21:13:57.953Z,-23254.44
2023-02-04T21:16:02.320Z,-23254.25
2023-02-04T21:18:05.463Z,-23253.94
2023-02-04T21:20:08.962Z,-23254.59
2023-02-04T21:22:11.626Z,-23254.59
2023-02-04T21:24:14.833Z,-23254.09
2023-02-04T21:26:17.545Z,-23253.00
2023-02-04T21:28:20.294Z,-23250.44
2023-02-04T21:30:24.217Z,-23250.59
2023-02-04T21:32:28.266Z,-23251.88
2023-02-04T21:34:30.974Z,-23253.31
2023-02-04T21:36:33.754Z,-23251.56
2023-02-04T21:38:36.418Z,-23247.56
2023-02-04T21:40:40.137Z,-23245.81
2023-02-04T21:42:42.809Z,-23247.25
2023-02-04T21:44:45.475Z,-23247.72
2023-02-04T21:46:48.213Z,-23248.38
2023-02-04T21:48:52.239Z,-23248.03
2023-02-04T21:50:54.905Z,-23249.00
2023-02-04T21:52:57.593Z,-23251.56
2023-02-04T21:55:00.274Z,-23249.63
2023-02-04T21:57:04.328Z,-23244.53
2023-02-04T21:59:06.931Z,-23246.13
2023-02-04T22:01:10.434Z,-23241.50
2023-02-04T22:03:17.123Z,-23245.66
2023-02-04T22:05:21.648Z,-23249.00
2023-02-04T22:07:24.426Z,-23251.56
2023-02-04T22:09:27.099Z,-23253.78
2023-02-04T22:11:29.795Z,-23255.69
2023-02-04T22:13:32.503Z,-23256.00
2023-02-04T22:15:35.460Z,-23256.97
2023-02-04T22:17:38.450Z,-23258.88
2023-02-04T22:19:41.069Z,-23261.13
2023-02-04T22:21:45.122Z,-23260.97
2023-02-04T22:23:47.748Z,-23263.34
2023-02-04T22:25:50.403Z,-23265.75
2023-02-04T22:27:53.028Z,-23265.59
2023-02-04T22:29:56.960Z,-23268.44
2023-02-04T22:31:59.816Z,-23266.53
2023-02-04T22:34:03.339Z,-23264.31
2023-02-04T22:36:06.566Z,-23265.75
2023-02-04T22:38:10.510Z,-23268.13
2023-02-04T22:40:13.732Z,-23267.81
2023-02-04T22:42:16.487Z,-23271.00
2023-02-04T22:44:19.269Z,-23270.22
2023-02-04T22:46:22.318Z,-23272.44
2023-02-04T22:48:24.977Z,-23272.91
2023-02-04T22:50:27.671Z,-23273.72
2023-02-04T22:52:30.268Z,-23275.78
2023-02-04T22:54:34.466Z,-23278.19
2023-02-04T22:56:37.215Z,-23278.97
2023-02-04T22:58:39.804Z,-23276.09
2023-02-04T23:00:43.130Z,-23278.03
2023-02-04T23:02:45.862Z,-23277.69
2023-02-04T23:04:48.535Z,-23279.78
2023-02-04T23:06:51.998Z,-23275.47
2023-02-04T23:08:54.852Z,-23274.34
2023-02-04T23:10:58.928Z,-23275.47
2023-02-04T23:13:01.581Z,-23279.94
2023-02-04T23:15:04.633Z,-23279.44
2023-02-04T23:17:07.412Z,-23283.44
2023-02-04T23:19:10.140Z,-23282.16
2023-02-04T23:21:12.882Z,-23291.72
2023-02-04T23:23:17.504Z,-23287.91
2023-02-04T23:25:20.911Z,-23290.94
2023-02-04T23:27:25.040Z,-23284.38
2023-02-04T23:29:29.174Z,-23284.06
2023-02-04T23:31:31.925Z,-23285.03
2023-02-04T23:33:34.624Z,-23276.09
2023-02-04T23:35:37.845Z,-23265.09
2023-02-04T23:37:40.479Z,-23260.81